Time;durP1;ratioP1;P1;durP2;ratioP2;P2;SDS_P1;SDS_P2;PMS_P1;PMS_P2;Temp;Humidity;BMP_temperature;BMP_pressure;BME280_temperature;BME280_humidity;BME280_pressure;Samples;Min_cycle;Max_cycle;Signal;HPM_P1;HPM_P2
2023/08/11 00:00:42;;;;;;;3.88;2.58;;;17.10;99.90;;;;;;5056072;28;20224;-79
2023/08/11 00:03:09;;;;;;;10.05;2.80;;;17.10;99.90;;;;;;5056089;28;20195;-81
2023/08/11 00:05:37;;;;;;;6.65;2.70;;;17.10;99.90;;;;;;5054811;28;20227;-79
2023/08/11 00:08:08;;;;;;;4.85;2.10;;;17.10;99.90;;;;;;5059658;28;20250;-79
2023/08/11 00:10:35;;;;;;;7.28;2.30;;;17.10;99.90;;;;;;5055219;28;20199;-79
2023/08/11 00:13:03;;;;;;;9.57;2.55;;;17.20;99.90;;;;;;5055360;28;20201;-78
2023/08/11 00:15:31;;;;;;;6.93;2.70;;;17.20;99.90;;;;;;5057140;28;20191;-81
2023/08/11 00:18:00;;;;;;;8.40;2.92;;;17.20;99.90;;;;;;5048507;28;20298;-81
2023/08/11 00:20:27;;;;;;;8.35;2.70;;;17.10;99.90;;;;;;5056968;28;20203;-80
2023/08/11 00:22:54;;;;;;;6.60;2.60;;;17.10;99.90;;;;;;5056456;28;20198;-80
2023/08/11 00:25:22;;;;;;;6.15;2.70;;;17.10;99.90;;;;;;5055725;28;20229;-80
2023/08/11 00:27:48;;;;;;;6.88;2.80;;;17.10;99.90;;;;;;5053973;28;20215;-81
2023/08/11 00:30:18;;;;;;;9.52;2.92;;;17.20;99.90;;;;;;5056337;28;20199;-80
2023/08/11 00:32:45;;;;;;;6.43;2.25;;;17.30;99.90;;;;;;5036156;28;20206;-79
2023/08/11 00:35:12;;;;;;;7.30;2.50;;;17.10;99.90;;;;;;5052732;28;20201;-79
2023/08/11 00:37:39;;;;;;;4.13;2.53;;;17.10;99.90;;;;;;5055003;28;20309;-79
2023/08/11 00:40:08;;;;;;;10.40;2.78;;;17.00;99.90;;;;;;5055414;28;20241;-79
2023/08/11 00:42:35;;;;;;;5.30;2.60;;;17.10;99.90;;;;;;5055154;28;20333;-79
2023/08/11 00:45:03;;;;;;;4.88;2.50;;;17.10;99.90;;;;;;5055230;28;20225;-78
2023/08/11 00:47:32;;;;;;;6.07;2.20;;;17.10;99.90;;;;;;5054415;28;20203;-79
2023/08/11 00:49:59;;;;;;;8.43;2.67;;;17.10;99.90;;;;;;5055856;28;20691;-79
2023/08/11 00:52:26;;;;;;;4.22;2.58;;;17.10;99.90;;;;;;5054807;28;20293;-79
2023/08/11 00:54:53;;;;;;;7.13;2.40;;;17.10;99.90;;;;;;5055163;28;20195;-79
2023/08/11 00:57:20;;;;;;;5.88;2.50;;;17.10;99.90;;;;;;5054763;28;20197;-79
2023/08/11 00:59:48;;;;;;;4.43;2.80;;;17.10;99.90;;;;;;5055399;28;20552;-79
2023/08/11 01:02:15;;;;;;;5.57;2.63;;;16.90;99.90;;;;;;5054405;28;20602;-79
2023/08/11 01:04:43;;;;;;;8.73;2.65;;;16.80;99.90;;;;;;5055064;28;20233;-79
2023/08/11 01:07:18;;;;;;;7.68;2.45;;;16.90;99.90;;;;;;5054547;28;20203;-79
2023/08/11 01:10:00;;;;;;;3.97;2.47;;;16.90;99.90;;;;;;5057426;28;20691;-79
2023/08/11 01:12:34;;;;;;;6.45;2.28;;;17.00;99.90;;;;;;5058801;28;20195;-79
2023/08/11 01:15:11;;;;;;;6.50;3.08;;;17.10;99.90;;;;;;5058445;28;20202;-79
2023/08/11 01:17:40;;;;;;;4.35;2.22;;;17.20;99.90;;;;;;5058389;28;20289;-79
2023/08/11 01:20:11;;;;;;;2.67;2.15;;;17.10;99.90;;;;;;5058516;28;20298;-79
2023/08/11 01:22:42;;;;;;;5.80;2.95;;;17.00;99.90;;;;;;5058668;28;20241;-79
2023/08/11 01:25:11;;;;;;;7.63;2.53;;;16.90;99.90;;;;;;5058613;28;20226;-80
2023/08/11 01:27:44;;;;;;;6.30;2.58;;;16.80;99.90;;;;;;5058349;28;20206;-79
2023/08/11 01:30:12;;;;;;;2.78;2.03;;;16.70;99.90;;;;;;5058771;28;20202;-79
2023/08/11 01:32:39;;;;;;;7.50;2.55;;;16.80;99.90;;;;;;5058295;28;20209;-80
2023/08/11 01:35:08;;;;;;;3.60;2.42;;;16.80;99.90;;;;;;5058169;28;20195;-79
2023/08/11 01:37:35;;;;;;;4.97;2.33;;;16.90;99.90;;;;;;5057070;28;20229;-79
2023/08/11 01:40:04;;;;;;;4.57;2.65;;;16.90;99.90;;;;;;5058196;28;20207;-79
2023/08/11 01:42:32;;;;;;;19.30;2.88;;;16.80;99.90;;;;;;5058662;28;20234;-79
2023/08/11 01:44:59;;;;;;;4.57;2.85;;;16.90;99.90;;;;;;5058443;28;20426;-79
2023/08/11 01:47:26;;;;;;;3.80;2.63;;;16.90;99.90;;;;;;5057552;28;20199;-79
2023/08/11 01:49:52;;;;;;;16.05;2.95;;;16.80;99.90;;;;;;5058108;28;20604;-79
2023/08/11 01:52:20;;;;;;;5.13;2.70;;;16.70;99.90;;;;;;5057684;28;20205;-79
2023/08/11 01:54:46;;;;;;;4.78;2.38;;;16.70;99.90;;;;;;5058361;28;20330;-79
2023/08/11 01:57:14;;;;;;;3.88;3.10;;;16.80;99.90;;;;;;5057606;28;20211;-79
2023/08/11 01:59:42;;;;;;;5.70;2.45;;;16.80;99.90;;;;;;5057309;28;20222;-79
2023/08/11 02:02:09;;;;;;;6.93;2.63;;;16.90;99.90;;;;;;5041241;28;20227;-79
2023/08/11 02:04:36;;;;;;;7.10;2.95;;;16.80;99.90;;;;;;5056534;28;20289;-79
2023/08/11 02:07:03;;;;;;;3.35;2.60;;;16.90;99.90;;;;;;5060166;28;20675;-79
2023/08/11 02:09:29;;;;;;;7.22;2.95;;;16.80;99.90;;;;;;5060225;28;20223;-79
2023/08/11 02:11:56;;;;;;;7.80;2.95;;;16.90;99.90;;;;;;5065909;28;20211;-78
2023/08/11 02:14:23;;;;;;;5.78;2.72;;;16.90;99.90;;;;;;5059109;28;20206;-78
2023/08/11 02:16:51;;;;;;;10.25;3.13;;;16.90;99.90;;;;;;5056625;28;20281;-78
2023/08/11 02:19:19;;;;;;;7.68;2.70;;;16.90;99.90;;;;;;5056925;28;20656;-80
2023/08/11 02:21:45;;;;;;;4.22;2.80;;;16.80;99.90;;;;;;5056519;28;20195;-79
2023/08/11 02:24:12;;;;;;;9.60;2.85;;;16.80;99.90;;;;;;5057327;28;20199;-79
2023/08/11 02:26:39;;;;;;;6.70;2.88;;;16.90;99.90;;;;;;5056869;28;20222;-79
2023/08/11 02:29:07;;;;;;;3.15;2.45;;;16.70;99.90;;;;;;5056737;28;20284;-78
2023/08/11 02:31:34;;;;;;;6.82;2.80;;;16.60;99.90;;;;;;5057158;28;20210;-79
2023/08/11 02:34:02;;;;;;;11.25;3.35;;;16.60;99.90;;;;;;5056778;28;20214;-79
2023/08/11 02:36:28;;;;;;;7.00;3.30;;;16.70;99.90;;;;;;5057192;28;20569;-78
2023/08/11 02:38:56;;;;;;;5.03;2.92;;;16.70;99.90;;;;;;5056823;28;20579;-79
2023/08/11 02:41:22;;;;;;;4.75;2.88;;;16.60;99.90;;;;;;5057543;28;20798;-79
2023/08/11 02:43:49;;;;;;;6.18;2.97;;;16.60;99.90;;;;;;5056649;28;20195;-79
2023/08/11 02:46:16;;;;;;;5.82;2.95;;;16.60;99.90;;;;;;5054381;28;20226;-79
2023/08/11 02:48:43;;;;;;;6.13;3.10;;;16.60;99.90;;;;;;5056422;28;20680;-79
2023/08/11 02:51:11;;;;;;;6.00;2.63;;;16.60;99.90;;;;;;5056462;28;20677;-79
2023/08/11 02:53:38;;;;;;;5.57;2.88;;;16.60;99.90;;;;;;5056698;28;20293;-79
2023/08/11 02:56:07;;;;;;;6.35;2.97;;;16.60;99.90;;;;;;5056259;28;20195;-79
2023/08/11 02:58:34;;;;;;;6.00;2.80;;;16.60;99.90;;;;;;5074829;28;20240;-79
2023/08/11 03:01:02;;;;;;;5.47;2.60;;;16.70;99.90;;;;;;5076199;28;20202;-78
2023/08/11 03:03:29;;;;;;;5.97;2.72;;;16.70;99.90;;;;;;5066491;28;20587;-79
2023/08/11 03:05:56;;;;;;;10.38;3.17;;;16.60;99.90;;;;;;5055802;28;20719;-79
2023/08/11 03:08:25;;;;;;;4.45;2.60;;;16.50;99.90;;;;;;5055179;28;20716;-79
2023/08/11 03:10:52;;;;;;;6.57;2.78;;;16.50;99.90;;;;;;5055774;28;20225;-79
2023/08/11 03:13:19;;;;;;;4.65;2.63;;;16.40;99.90;;;;;;5056132;28;20256;-79
2023/08/11 03:15:46;;;;;;;7.63;4.05;;;16.50;99.90;;;;;;5055939;28;20207;-78
2023/08/11 03:18:13;;;;;;;7.60;3.28;;;16.40;99.90;;;;;;5051227;28;20557;-79
2023/08/11 03:20:40;;;;;;;4.85;3.55;;;16.50;99.90;;;;;;5056862;28;20286;-82
2023/08/11 03:23:07;;;;;;;5.35;3.53;;;16.50;99.90;;;;;;5056486;28;20220;-79
2023/08/11 03:25:36;;;;;;;5.47;2.75;;;16.50;99.90;;;;;;5055952;28;20604;-79
2023/08/11 03:28:04;;;;;;;3.53;2.25;;;16.50;99.90;;;;;;5056036;28;20222;-80
2023/08/11 03:30:31;;;;;;;7.88;2.63;;;16.30;99.90;;;;;;5059397;28;20217;-79
2023/08/11 03:32:58;;;;;;;4.03;2.58;;;16.30;99.90;;;;;;5059211;28;20203;-80
2023/08/11 03:35:25;;;;;;;6.68;3.13;;;16.20;99.90;;;;;;5059548;28;20195;-79
2023/08/11 03:37:51;;;;;;;8.07;3.15;;;16.30;99.90;;;;;;5059198;28;20310;-81
2023/08/11 03:40:18;;;;;;;4.88;2.78;;;16.40;99.90;;;;;;5060612;28;20578;-79
2023/08/11 03:42:47;;;;;;;4.65;2.60;;;16.30;99.90;;;;;;5059465;28;20210;-79
2023/08/11 03:45:14;;;;;;;8.27;2.80;;;16.30;99.90;;;;;;5059334;28;20206;-79
2023/08/11 03:47:42;;;;;;;4.35;2.83;;;16.40;99.90;;;;;;5057198;28;20227;-79
2023/08/11 03:50:09;;;;;;;6.72;3.15;;;16.30;99.90;;;;;;5059850;28;20219;-79
2023/08/11 03:52:37;;;;;;;5.53;3.03;;;16.30;99.90;;;;;;5059117;28;20210;-80
2023/08/11 03:55:09;;;;;;;7.05;3.05;;;16.30;99.90;;;;;;5057793;28;20211;-79
2023/08/11 03:57:36;;;;;;;5.40;3.17;;;16.20;99.90;;;;;;5057331;28;20214;-79
2023/08/11 04:00:05;;;;;;;21.05;13.00;;;16.20;99.90;;;;;;5058935;28;20201;-79
2023/08/11 04:02:33;;;;;;;8.30;4.03;;;16.10;99.90;;;;;;5057907;28;20209;-79
2023/08/11 04:04:59;;;;;;;6.05;3.55;;;15.90;99.90;;;;;;5057843;28;20206;-79
2023/08/11 04:07:27;;;;;;;6.35;3.53;;;15.90;99.90;;;;;;5056458;28;20290;-79
2023/08/11 04:09:54;;;;;;;6.03;3.38;;;15.90;99.90;;;;;;5057948;28;20338;-79
2023/08/11 04:12:21;;;;;;;9.13;3.28;;;15.70;99.90;;;;;;5056390;28;20206;-79
2023/08/11 04:14:47;;;;;;;5.43;3.80;;;15.80;99.90;;;;;;5050225;28;20206;-80
2023/08/11 04:17:16;;;;;;;4.50;3.58;;;15.70;99.90;;;;;;5061241;28;20201;-79
2023/08/11 04:19:43;;;;;;;6.32;3.50;;;15.70;99.90;;;;;;5054921;28;20237;-79
2023/08/11 04:22:10;;;;;;;7.18;3.70;;;15.60;99.90;;;;;;5052577;28;20665;-80
2023/08/11 04:24:38;;;;;;;5.32;3.55;;;15.60;99.90;;;;;;5054609;28;20634;-79
2023/08/11 04:27:05;;;;;;;9.45;5.13;;;15.50;99.90;;;;;;5051371;28;20229;-80
2023/08/11 04:29:32;;;;;;;7.78;3.60;;;15.40;99.90;;;;;;5047001;28;20711;-79
2023/08/11 04:32:02;;;;;;;6.20;3.08;;;15.40;99.90;;;;;;5052978;28;20231;-80
2023/08/11 04:34:30;;;;;;;5.93;3.17;;;15.40;99.90;;;;;;5054277;28;20260;-79
2023/08/11 04:36:57;;;;;;;6.55;3.22;;;15.30;99.90;;;;;;5054029;28;20290;-79
2023/08/11 04:39:24;;;;;;;7.25;3.05;;;15.30;99.90;;;;;;5037925;28;20696;-79
2023/08/11 04:41:51;;;;;;;6.00;2.95;;;15.50;99.90;;;;;;5061164;28;20293;-80
2023/08/11 04:44:18;;;;;;;6.55;3.13;;;15.90;99.90;;;;;;5056753;28;20264;-80
2023/08/11 04:46:46;;;;;;;4.35;2.72;;;15.80;99.90;;;;;;5056691;28;20233;-80
2023/08/11 04:49:13;;;;;;;5.40;2.65;;;15.80;99.90;;;;;;5019605;28;1084539;-80
2023/08/11 04:51:42;;;;;;;7.13;3.25;;;15.80;99.90;;;;;;5058814;28;20217;-79
2023/08/11 04:54:11;;;;;;;5.13;2.63;;;15.80;99.90;;;;;;5053873;28;20260;-79
2023/08/11 04:56:38;;;;;;;4.30;2.72;;;15.70;99.90;;;;;;5058463;28;20194;-79
2023/08/11 04:59:05;;;;;;;5.97;2.80;;;15.80;99.90;;;;;;5058598;28;20742;-81
2023/08/11 05:01:32;;;;;;;5.53;2.88;;;15.80;99.90;;;;;;5058727;28;20195;-79
2023/08/11 05:03:59;;;;;;;4.35;3.22;;;15.80;99.90;;;;;;5058806;28;20209;-79
2023/08/11 05:06:26;;;;;;;7.22;2.78;;;16.00;99.90;;;;;;5058571;28;20255;-80
2023/08/11 05:08:54;;;;;;;7.93;2.80;;;15.90;99.90;;;;;;5057659;28;20218;-79
2023/08/11 05:11:21;;;;;;;7.38;2.53;;;15.90;99.90;;;;;;5058938;28;20211;-80
2023/08/11 05:13:48;;;;;;;5.97;2.90;;;16.40;99.90;;;;;;5066756;28;20269;-80
2023/08/11 05:16:15;;;;;;;4.63;2.63;;;16.30;99.90;;;;;;5060645;28;20312;-81
2023/08/11 05:18:42;;;;;;;7.50;2.88;;;16.10;99.90;;;;;;5062248;28;20219;-79
2023/08/11 05:21:09;;;;;;;5.45;3.00;;;15.90;99.90;;;;;;5063198;28;20212;-80
2023/08/11 05:23:35;;;;;;;7.97;2.83;;;16.00;99.90;;;;;;5057964;28;20210;-81
2023/08/11 05:26:04;;;;;;;7.88;3.42;;;16.10;99.90;;;;;;5063438;28;20222;-80
2023/08/11 05:28:30;;;;;;;5.82;2.80;;;16.00;99.90;;;;;;5055193;28;20223;-79
2023/08/11 05:30:57;;;;;;;6.25;2.97;;;15.90;99.90;;;;;;5053319;28;20207;-79
2023/08/11 05:33:24;;;;;;;14.48;3.05;;;15.90;99.90;;;;;;5049032;28;20233;-80
2023/08/11 05:35:51;;;;;;;4.60;2.60;;;16.00;99.90;;;;;;5057919;28;20203;-80
2023/08/11 05:38:22;;;;;;;6.25;2.92;;;16.00;99.90;;;;;;5057815;28;20292;-79
2023/08/11 05:40:49;;;;;;;17.15;10.55;;;16.30;99.90;;;;;;5057702;28;20207;-79
2023/08/11 05:43:17;;;;;;;14.32;8.07;;;16.20;99.90;;;;;;5057602;28;20199;-80
2023/08/11 05:45:44;;;;;;;7.90;4.55;;;16.10;99.90;;;;;;5052696;28;20204;-79
2023/08/11 05:48:11;;;;;;;5.13;3.10;;;16.10;99.90;;;;;;5056784;28;20802;-80
2023/08/11 05:50:39;;;;;;;5.45;2.83;;;16.00;99.90;;;;;;5054269;28;20697;-79
2023/08/11 05:53:06;;;;;;;4.60;3.05;;;16.10;99.90;;;;;;5053021;28;20293;-80
2023/08/11 05:55:32;;;;;;;6.28;3.00;;;16.20;99.90;;;;;;5049966;28;20645;-80
2023/08/11 05:57:59;;;;;;;4.15;3.15;;;16.30;99.90;;;;;;5055473;28;20255;-80
2023/08/11 06:00:27;;;;;;;4.63;2.90;;;16.30;99.90;;;;;;5057180;28;20203;-80
2023/08/11 06:02:54;;;;;;;5.15;2.90;;;16.50;99.90;;;;;;5054967;28;20209;-80
2023/08/11 06:05:21;;;;;;;6.15;2.90;;;16.70;99.90;;;;;;5063089;28;20203;-80
2023/08/11 06:07:49;;;;;;;3.72;3.25;;;16.70;99.90;;;;;;5042444;28;20696;-80
2023/08/11 06:10:16;;;;;;;6.15;2.75;;;16.90;99.90;;;;;;5055871;28;20198;-78
2023/08/11 06:12:43;;;;;;;3.83;2.60;;;17.10;99.90;;;;;;5059396;28;20202;-80
2023/08/11 06:15:10;;;;;;;7.93;3.47;;;17.20;99.90;;;;;;5052598;28;20623;-79
2023/08/11 06:17:38;;;;;;;8.05;5.15;;;17.40;99.90;;;;;;5056051;28;20226;-79
2023/08/11 06:20:09;;;;;;;5.22;3.00;;;17.40;99.90;;;;;;5051571;28;20209;-80
2023/08/11 06:22:36;;;;;;;4.47;2.95;;;17.60;99.90;;;;;;5045312;28;20217;-79
2023/08/11 06:25:03;;;;;;;3.92;2.80;;;18.00;99.90;;;;;;5052569;28;20206;-80
2023/08/11 06:27:30;;;;;;;7.57;2.85;;;18.00;99.90;;;;;;5054227;28;20210;-80
2023/08/11 06:29:57;;;;;;;3.45;2.67;;;17.80;99.90;;;;;;5051491;28;20199;-80
2023/08/11 06:32:24;;;;;;;2.95;2.63;;;18.00;99.90;;;;;;5056511;28;20209;-80
2023/08/11 06:34:52;;;;;;;4.45;2.53;;;18.00;99.90;;;;;;5056627;28;20422;-80
2023/08/11 06:37:19;;;;;;;7.50;2.58;;;18.10;99.90;;;;;;5054061;28;20202;-79
2023/08/11 06:39:45;;;;;;;4.97;2.97;;;18.20;99.90;;;;;;5049824;28;20209;-79
2023/08/11 06:42:12;;;;;;;5.25;2.80;;;18.20;99.90;;;;;;5056872;28;20273;-80
2023/08/11 06:44:39;;;;;;;10.95;3.38;;;18.20;99.90;;;;;;5046976;28;20586;-80
2023/08/11 06:47:06;;;;;;;5.55;2.72;;;18.20;99.90;;;;;;5056395;28;20688;-79
2023/08/11 06:49:33;;;;;;;3.10;2.58;;;18.30;99.90;;;;;;5049952;28;20230;-79
2023/08/11 06:52:01;;;;;;;7.65;3.00;;;18.60;99.90;;;;;;5050681;28;20211;-79
2023/08/11 06:54:27;;;;;;;3.80;3.08;;;18.60;99.90;;;;;;5056876;28;20207;-79
2023/08/11 06:56:54;;;;;;;2.78;2.45;;;18.70;99.90;;;;;;5056020;28;20262;-79
2023/08/11 06:59:21;;;;;;;3.63;2.35;;;18.70;99.90;;;;;;5047814;28;20231;-80
2023/08/11 07:01:48;;;;;;;3.08;2.28;;;18.80;99.90;;;;;;5054777;28;20568;-80
2023/08/11 07:04:15;;;;;;;5.63;2.72;;;18.90;99.90;;;;;;5053960;28;20635;-82
2023/08/11 07:06:41;;;;;;;2.75;2.55;;;19.30;99.90;;;;;;5055287;28;20228;-80
2023/08/11 07:09:09;;;;;;;2.45;2.25;;;19.20;99.90;;;;;;5051661;28;20229;-80
2023/08/11 07:11:36;;;;;;;6.55;2.60;;;19.20;99.90;;;;;;5055350;28;20209;-80
2023/08/11 07:14:03;;;;;;;11.82;8.25;;;19.30;99.90;;;;;;5058936;28;20213;-80
2023/08/11 07:16:30;;;;;;;4.72;3.33;;;19.50;99.90;;;;;;5056594;28;20692;-80
2023/08/11 07:18:57;;;;;;;2.80;2.28;;;19.50;99.90;;;;;;5056053;28;20233;-80
2023/08/11 07:21:23;;;;;;;3.45;2.30;;;19.60;99.90;;;;;;5056648;28;20581;-80
2023/08/11 07:23:50;;;;;;;3.78;2.28;;;19.60;99.90;;;;;;5054193;28;20199;-78
2023/08/11 07:26:18;;;;;;;2.42;2.08;;;19.70;99.90;;;;;;5053841;28;20290;-80
2023/08/11 07:28:45;;;;;;;4.10;2.20;;;19.80;99.90;;;;;;5051944;28;20254;-79
2023/08/11 07:31:12;;;;;;;5.22;2.15;;;19.80;99.90;;;;;;5051719;28;20211;-80
2023/08/11 07:33:39;;;;;;;2.15;1.95;;;19.90;99.90;;;;;;5061811;28;20199;-79
2023/08/11 07:36:06;;;;;;;1.95;1.67;;;20.00;99.90;;;;;;5054761;28;20718;-79
2023/08/11 07:38:33;;;;;;;2.03;1.92;;;20.00;99.90;;;;;;5053522;28;20313;-80
2023/08/11 07:41:00;;;;;;;5.90;2.05;;;19.90;99.90;;;;;;5050495;28;20203;-79
2023/08/11 07:43:28;;;;;;;3.78;2.08;;;20.00;99.90;;;;;;5056049;28;20289;-79
2023/08/11 07:45:55;;;;;;;2.03;1.83;;;20.10;99.90;;;;;;5049881;28;20677;-80
2023/08/11 07:48:22;;;;;;;2.10;1.90;;;20.10;99.90;;;;;;5048784;28;20222;-80
2023/08/11 07:50:49;;;;;;;1.58;1.48;;;20.10;99.90;;;;;;5053050;28;20207;-80
2023/08/11 07:53:16;;;;;;;2.38;1.42;;;20.10;99.90;;;;;;5054209;28;20199;-80
2023/08/11 07:55:42;;;;;;;1.80;1.60;;;20.20;99.90;;;;;;5050727;28;20203;-80
2023/08/11 07:58:09;;;;;;;3.08;1.80;;;20.20;99.90;;;;;;5055338;28;20211;-80
2023/08/11 08:00:37;;;;;;;2.50;1.63;;;20.40;99.90;;;;;;5052377;28;20211;-79
2023/08/11 08:03:05;;;;;;;2.90;1.45;;;20.40;99.90;;;;;;5057995;28;20218;-80
2023/08/11 08:05:32;;;;;;;2.22;1.70;;;20.40;99.90;;;;;;5055296;28;20563;-80
2023/08/11 08:07:59;;;;;;;1.75;1.60;;;20.40;99.90;;;;;;5059831;28;20261;-79
2023/08/11 08:10:26;;;;;;;2.80;1.70;;;20.40;99.90;;;;;;5048904;28;20202;-79
2023/08/11 08:12:53;;;;;;;2.85;1.40;;;20.50;99.90;;;;;;5055838;28;20202;-79
2023/08/11 08:15:20;;;;;;;1.45;1.30;;;20.50;99.90;;;;;;5050143;28;20649;-79
2023/08/11 08:17:48;;;;;;;3.80;1.20;;;20.70;99.90;;;;;;5058248;28;20245;-80
2023/08/11 08:20:16;;;;;;;1.90;1.70;;;20.70;99.90;;;;;;5058111;28;20199;-80
2023/08/11 08:22:43;;;;;;;1.20;1.20;;;20.60;99.90;;;;;;5055731;28;20202;-80
2023/08/11 08:25:10;;;;;;;1.30;1.20;;;20.70;99.90;;;;;;5053992;28;20210;-80
2023/08/11 08:27:39;;;;;;;2.92;1.52;;;20.80;99.90;;;;;;5055698;28;20688;-80
2023/08/11 08:30:09;;;;;;;2.47;1.52;;;20.90;99.90;;;;;;5047097;28;20199;-80
2023/08/11 08:32:37;;;;;;;0.82;0.80;;;20.80;99.90;;;;;;5052695;28;20208;-79
2023/08/11 08:35:07;;;;;;;1.33;1.23;;;21.00;99.90;;;;;;5049505;28;20195;-80
2023/08/11 08:37:34;;;;;;;0.95;0.95;;;21.10;99.90;;;;;;5052350;28;20192;-80
2023/08/11 08:40:01;;;;;;;1.20;1.10;;;21.10;99.90;;;;;;5055588;28;20245;-79
2023/08/11 08:42:30;;;;;;;2.58;1.30;;;21.20;99.90;;;;;;5061697;28;20194;-80
2023/08/11 08:44:58;;;;;;;2.60;1.63;;;21.20;99.90;;;;;;5049446;28;20202;-80
2023/08/11 08:47:26;;;;;;;1.45;1.30;;;21.20;99.90;;;;;;5057564;28;20225;-80
2023/08/11 08:49:54;;;;;;;1.65;1.30;;;21.40;99.90;;;;;;5050935;28;20217;-80
2023/08/11 08:52:22;;;;;;;2.90;1.67;;;21.30;99.90;;;;;;5047964;28;20219;-80
2023/08/11 08:54:49;;;;;;;1.65;1.38;;;21.40;99.90;;;;;;5044652;28;20207;-80
2023/08/11 08:57:17;;;;;;;3.30;1.33;;;21.40;99.90;;;;;;5057373;28;20200;-80
2023/08/11 08:59:44;;;;;;;1.05;0.90;;;21.40;99.90;;;;;;5048459;28;20233;-80
2023/08/11 09:02:11;;;;;;;1.10;1.00;;;21.50;99.90;;;;;;5054840;28;20200;-80
2023/08/11 09:04:38;;;;;;;1.20;1.10;;;21.80;99.90;;;;;;5050311;28;20215;-80
2023/08/11 09:07:05;;;;;;;2.20;1.10;;;22.00;99.90;;;;;;5052634;28;20213;-80
2023/08/11 09:09:33;;;;;;;0.90;0.90;;;22.50;99.90;;;;;;5054132;28;20226;-79
2023/08/11 09:12:00;;;;;;;2.05;0.70;;;23.20;99.90;;;;;;5062096;28;20314;-80
2023/08/11 09:14:27;;;;;;;1.20;1.02;;;23.40;99.90;;;;;;5059361;28;20198;-80
2023/08/11 09:16:54;;;;;;;0.70;0.70;;;23.80;99.90;;;;;;5051912;28;20250;-80
2023/08/11 09:19:23;;;;;;;0.93;0.90;;;24.10;99.90;;;;;;5062290;28;20222;-80
2023/08/11 09:21:50;;;;;;;1.23;0.98;;;24.40;99.90;;;;;;5047509;28;20247;-80
2023/08/11 09:24:17;;;;;;;1.63;1.17;;;24.70;99.90;;;;;;5050204;28;20203;-80
2023/08/11 09:26:49;;;;;;;0.95;0.95;;;25.00;99.90;;;;;;5050785;28;20213;-81
2023/08/11 09:29:16;;;;;;;0.90;0.85;;;25.20;99.90;;;;;;5049235;28;20245;-80
2023/08/11 09:31:42;;;;;;;0.93;0.80;;;24.80;99.90;;;;;;5061989;28;20203;-80
2023/08/11 09:34:14;;;;;;;3.83;1.50;;;25.00;99.90;;;;;;5053998;28;20199;-80
2023/08/11 09:36:42;;;;;;;1.77;1.00;;;25.40;99.90;;;;;;5059603;28;20577;-80
2023/08/11 09:39:10;;;;;;;1.98;1.27;;;25.50;99.90;;;;;;5057240;28;20703;-80
2023/08/11 09:41:43;;;;;;;1.58;1.27;;;25.30;99.90;;;;;;5055012;28;20254;-79
2023/08/11 09:44:13;;;;;;;1.63;1.10;;;25.90;99.90;;;;;;5055987;28;20210;-81
2023/08/11 09:46:40;;;;;;;2.85;1.60;;;25.60;99.90;;;;;;5055604;28;20206;-80
2023/08/11 09:49:07;;;;;;;1.20;1.10;;;25.70;99.90;;;;;;5053133;28;20223;-81
2023/08/11 09:51:35;;;;;;;2.45;1.35;;;26.10;99.90;;;;;;5053104;28;20208;-80
2023/08/11 09:54:05;;;;;;;1.90;1.27;;;26.40;99.90;;;;;;5059042;28;20293;-80
2023/08/11 09:56:34;;;;;;;1.60;1.13;;;26.30;99.90;;;;;;5055903;28;20205;-80
2023/08/11 09:59:04;;;;;;;1.60;1.20;;;26.80;99.90;;;;;;5054975;28;20219;-80
2023/08/11 10:01:34;;;;;;;2.67;1.65;;;26.90;99.90;;;;;;5067492;28;20202;-80
2023/08/11 10:04:07;;;;;;;2.15;1.45;;;26.70;99.90;;;;;;5054430;28;20202;-81
2023/08/11 10:06:36;;;;;;;1.42;1.33;;;26.70;99.90;;;;;;5051307;28;20217;-80
2023/08/11 10:09:04;;;;;;;1.52;1.42;;;27.30;99.90;;;;;;5050038;28;20223;-79
2023/08/11 10:11:35;;;;;;;2.28;1.50;;;27.10;99.90;;;;;;5060663;28;20194;-78
2023/08/11 10:14:04;;;;;;;1.73;1.55;;;27.20;99.90;;;;;;5056235;28;20251;-79
2023/08/11 10:16:33;;;;;;;5.07;1.60;;;26.60;93.90;;;;;;5056167;28;20207;-80
2023/08/11 10:19:01;;;;;;;3.33;1.70;;;26.90;90.40;;;;;;5055651;28;20222;-80
2023/08/11 10:21:28;;;;;;;4.50;1.50;;;27.20;67.10;;;;;;5057590;28;21223;-80
2023/08/11 10:23:55;;;;;;;4.40;1.70;;;27.40;99.90;;;;;;5060835;28;20203;-80
2023/08/11 10:26:23;;;;;;;5.55;1.70;;;27.80;99.90;;;;;;5060268;28;20203;-80
2023/08/11 10:28:51;;;;;;;3.10;1.60;;;27.80;66.80;;;;;;5058242;28;20780;-79
2023/08/11 10:31:18;;;;;;;2.80;1.60;;;27.60;57.30;;;;;;5057619;28;20199;-80
2023/08/11 10:33:51;;;;;;;2.10;1.60;;;28.00;81.70;;;;;;5054483;28;20226;-80
2023/08/11 10:36:22;;;;;;;1.95;1.48;;;27.90;74.40;;;;;;5052313;28;20203;-80
2023/08/11 10:39:01;;;;;;;4.13;1.58;;;28.10;99.90;;;;;;5057020;28;20226;-80
2023/08/11 10:41:29;;;;;;;4.10;2.00;;;28.30;79.80;;;;;;5049447;28;20211;-79
2023/08/11 10:43:57;;;;;;;2.75;1.88;;;27.70;53.50;;;;;;5057229;28;20198;-79
2023/08/11 10:46:26;;;;;;;2.88;1.90;;;28.00;34.60;;;;;;5057218;28;20293;-79
2023/08/11 10:48:55;;;;;;;3.30;2.17;;;28.00;1.00;;;;;;5055221;28;20321;-79
2023/08/11 10:51:29;;;;;;;2.22;1.80;;;27.90;23.60;;;;;;5056689;28;20207;-79
2023/08/11 10:53:58;;;;;;;2.50;2.08;;;27.90;1.00;;;;;;5054363;28;20202;-79
2023/08/11 10:56:29;;;;;;;2.22;2.00;;;27.70;1.00;;;;;;5059676;28;20195;-79
2023/08/11 10:59:13;;;;;;;2.45;1.88;;;28.10;1.00;;;;;;5057440;28;20214;-78
2023/08/11 11:01:41;;;;;;;3.28;1.70;;;28.00;2.00;;;;;;5059261;28;20258;-80
2023/08/11 11:04:11;;;;;;;2.03;1.80;;;28.00;1.00;;;;;;5056558;28;20203;-80
2023/08/11 11:06:39;;;;;;;2.83;2.22;;;27.80;1.00;;;;;;5058379;28;20211;-80
2023/08/11 11:09:07;;;;;;;2.30;2.00;;;28.30;5.50;;;;;;5055243;28;20222;-79
2023/08/11 11:11:36;;;;;;;2.47;1.83;;;28.30;24.70;;;;;;5055595;28;20203;-80
2023/08/11 11:14:04;;;;;;;7.45;2.53;;;28.30;1.00;;;;;;5061481;28;20198;-80
2023/08/11 11:16:32;;;;;;;2.13;1.83;;;27.80;1.00;;;;;;5059152;28;20199;-79
2023/08/11 11:19:00;;;;;;;3.40;1.80;;;28.00;1.00;;;;;;5056196;28;20223;-79
2023/08/11 11:21:28;;;;;;;5.55;3.45;;;28.70;1.00;;;;;;5053789;28;20199;-79
2023/08/11 11:23:56;;;;;;;4.20;2.65;;;28.50;1.00;;;;;;5053906;28;20583;-80
2023/08/11 11:26:24;;;;;;;4.50;2.00;;;28.20;1.00;;;;;;5058002;28;20253;-79
2023/08/11 11:28:51;;;;;;;5.30;1.90;;;28.50;1.00;;;;;;5058327;28;20226;-79
2023/08/11 11:31:19;;;;;;;4.65;1.92;;;28.70;1.00;;;;;;5050095;28;20205;-79
2023/08/11 11:33:47;;;;;;;2.20;2.00;;;29.20;1.00;;;;;;5062709;28;20210;-79
2023/08/11 11:36:14;;;;;;;1.88;1.60;;;29.10;1.00;;;;;;5053672;28;20222;-79
2023/08/11 11:38:42;;;;;;;3.75;1.65;;;28.90;1.00;;;;;;5053934;28;20223;-79
2023/08/11 11:41:11;;;;;;;2.92;1.73;;;28.60;1.00;;;;;;5052814;28;20252;-78
2023/08/11 11:43:38;;;;;;;4.03;1.88;;;28.60;1.00;;;;;;5056289;28;20210;-78
2023/08/11 11:46:14;;;;;;;2.72;1.73;;;29.00;1.00;;;;;;5054261;28;20203;-77
2023/08/11 11:48:42;;;;;;;2.30;2.00;;;28.90;1.00;;;;;;5052710;28;20269;-79
2023/08/11 11:51:09;;;;;;;1.88;1.77;;;29.20;1.00;;;;;;5058531;28;20207;-79
2023/08/11 11:53:38;;;;;;;3.35;1.92;;;29.40;1.00;;;;;;5049413;28;20199;-79
2023/08/11 11:56:07;;;;;;;3.15;2.28;;;29.40;1.00;;;;;;5050165;28;20207;-79
2023/08/11 11:58:34;;;;;;;5.10;2.03;;;29.50;1.00;;;;;;5061126;28;20214;-79
2023/08/11 12:01:11;;;;;;;3.05;1.95;;;29.40;1.00;;;;;;5056825;28;20289;-79
2023/08/11 12:03:38;;;;;;;2.45;1.70;;;29.80;1.00;;;;;;5055785;28;20202;-79
2023/08/11 12:06:05;;;;;;;1.70;1.60;;;29.50;1.00;;;;;;5054198;28;20269;-79
2023/08/11 12:08:33;;;;;;;2.47;1.75;;;29.50;1.00;;;;;;5056299;28;20237;-79
2023/08/11 12:11:01;;;;;;;1.83;1.65;;;29.60;1.00;;;;;;5052127;28;20215;-80
2023/08/11 12:13:30;;;;;;;2.60;1.65;;;29.30;1.00;;;;;;5049452;28;20203;-79
2023/08/11 12:15:57;;;;;;;3.85;1.85;;;29.20;1.00;;;;;;5053468;28;20578;-79
2023/08/11 12:18:24;;;;;;;4.20;2.05;;;29.50;1.00;;;;;;5054388;28;20226;-79
2023/08/11 12:20:51;;;;;;;4.32;1.80;;;29.00;1.00;;;;;;5054052;28;20209;-79
2023/08/11 12:23:18;;;;;;;3.63;1.90;;;28.70;1.00;;;;;;5060716;28;20221;-78
2023/08/11 12:25:45;;;;;;;2.58;2.20;;;28.90;1.00;;;;;;5055319;28;20212;-80
2023/08/11 12:28:12;;;;;;;2.92;2.50;;;29.50;1.00;;;;;;5055889;28;20225;-80
2023/08/11 12:30:40;;;;;;;3.15;1.95;;;29.80;1.00;;;;;;5051622;28;20206;-79
2023/08/11 12:33:07;;;;;;;1.65;1.50;;;30.10;1.00;;;;;;5050832;28;20298;-79
2023/08/11 12:35:34;;;;;;;2.28;2.00;;;29.60;1.00;;;;;;5057760;28;20205;-79
2023/08/11 12:38:00;;;;;;;2.03;1.75;;;29.00;1.00;;;;;;5062220;28;20646;-79
2023/08/11 12:40:28;;;;;;;4.90;2.15;;;29.70;1.00;;;;;;5061971;28;20199;-79
2023/08/11 12:42:55;;;;;;;2.50;1.65;;;29.90;1.00;;;;;;5055001;28;20207;-79
2023/08/11 12:45:22;;;;;;;2.65;1.80;;;29.70;1.00;;;;;;5059925;28;20199;-80
2023/08/11 12:47:50;;;;;;;2.05;1.60;;;29.50;1.00;;;;;;5057009;28;20219;-79
2023/08/11 12:50:17;;;;;;;1.60;1.50;;;30.20;1.00;;;;;;5060314;28;20686;-80